createdAt,value
2017-08-06T00:00:44.108Z,13.70
2017-08-06T00:03:10.396Z,13.70
2017-08-06T00:05:36.694Z,13.70
2017-08-06T00:08:02.992Z,13.70
2017-08-06T00:10:29.266Z,13.70
2017-08-06T00:12:56.287Z,13.60
2017-08-06T00:15:22.597Z,13.60
2017-08-06T00:17:48.877Z,13.60
2017-08-06T00:20:15.915Z,13.60
2017-08-06T00:22:42.947Z,13.70
2017-08-06T00:25:09.228Z,13.70
2017-08-06T00:27:35.515Z,13.70
2017-08-06T00:30:01.810Z,13.60
2017-08-06T00:32:28.082Z,13.60
2017-08-06T00:34:55.119Z,13.60
2017-08-06T00:37:21.391Z,13.60
2017-08-06T00:39:47.671Z,13.60
2017-08-06T00:42:13.947Z,13.70
2017-08-06T00:44:40.239Z,13.60
2017-08-06T00:47:06.528Z,13.70
2017-08-06T00:49:32.813Z,13.60
2017-08-06T00:51:59.111Z,13.60
2017-08-06T00:54:25.424Z,13.60
2017-08-06T00:56:51.712Z,13.60
2017-08-06T00:59:17.994Z,13.60
2017-08-06T01:01:44.329Z,13.60
2017-08-06T01:04:10.639Z,13.60
2017-08-06T01:06:36.919Z,13.60
2017-08-06T01:09:03.943Z,13.50
2017-08-06T01:11:30.219Z,13.50
2017-08-06T01:13:56.691Z,13.60
2017-08-06T01:16:23.076Z,13.50
2017-08-06T01:18:49.367Z,13.50
2017-08-06T01:21:15.694Z,13.40
2017-08-06T01:23:41.974Z,13.40
2017-08-06T01:26:08.256Z,13.40
2017-08-06T01:28:34.566Z,13.30
2017-08-06T01:31:00.861Z,13.30
2017-08-06T01:33:27.162Z,13.30
2017-08-06T01:35:54.214Z,13.40
2017-08-06T01:38:21.240Z,13.40
2017-08-06T01:40:47.542Z,13.30
2017-08-06T01:43:14.014Z,13.30
2017-08-06T01:45:41.018Z,13.30
2017-08-06T01:48:07.322Z,13.30
2017-08-06T01:50:33.654Z,13.30
2017-08-06T01:52:59.955Z,13.30
2017-08-06T01:55:27.000Z,13.30
2017-08-06T01:57:54.131Z,13.30
2017-08-06T02:00:20.432Z,13.30
2017-08-06T02:02:46.698Z,13.30
2017-08-06T02:05:12.989Z,13.20
2017-08-06T02:07:39.267Z,13.20
2017-08-06T02:10:06.283Z,13.30
2017-08-06T02:12:33.333Z,13.30
2017-08-06T02:14:59.611Z,13.30
2017-08-06T02:17:25.902Z,13.40
2017-08-06T02:19:52.215Z,13.40
2017-08-06T02:22:18.480Z,13.40
2017-08-06T02:24:45.486Z,13.40
2017-08-06T02:27:11.774Z,13.40
2017-08-06T02:29:38.067Z,13.40
2017-08-06T02:32:04.335Z,13.40
2017-08-06T02:34:31.167Z,13.40
2017-08-06T02:36:57.455Z,13.40
2017-08-06T02:39:23.736Z,13.30
2017-08-06T02:41:50.051Z,13.30
2017-08-06T02:44:16.849Z,13.30
2017-08-06T02:46:43.128Z,13.30
2017-08-06T02:49:09.817Z,13.30
2017-08-06T02:51:36.534Z,13.30
2017-08-06T02:54:02.815Z,13.30
2017-08-06T02:56:29.843Z,13.30
2017-08-06T02:58:56.181Z,13.20
2017-08-06T03:01:22.451Z,13.30
2017-08-06T03:03:48.726Z,13.40
2017-08-06T03:06:15.015Z,13.40
2017-08-06T03:08:41.294Z,13.40
2017-08-06T03:11:07.558Z,13.40
2017-08-06T03:13:34.037Z,13.30
2017-08-06T03:16:00.304Z,13.40
2017-08-06T03:18:27.313Z,13.30
2017-08-06T03:20:53.594Z,13.20
2017-08-06T03:23:19.884Z,13.20
2017-08-06T03:25:46.194Z,13.10
2017-08-06T03:28:12.491Z,13.10
2017-08-06T03:30:38.771Z,13.10
2017-08-06T03:33:05.048Z,13.00
2017-08-06T03:35:31.366Z,13.10
2017-08-06T03:37:58.053Z,13.00
2017-08-06T03:40:24.632Z,12.90
2017-08-06T03:42:51.683Z,12.90
2017-08-06T03:45:18.722Z,12.80
2017-08-06T03:47:44.989Z,12.80
2017-08-06T03:50:11.282Z,12.70
2017-08-06T03:52:38.303Z,12.80
2017-08-06T03:55:04.578Z,12.70
2017-08-06T03:57:31.146Z,12.80
2017-08-06T03:59:57.429Z,12.80
2017-08-06T04:02:24.454Z,12.70
2017-08-06T04:04:50.929Z,12.70
2017-08-06T04:07:17.206Z,12.70
2017-08-06T04:09:43.486Z,12.60
2017-08-06T04:12:09.771Z,12.60
2017-08-06T04:14:36.107Z,12.60
2017-08-06T04:17:02.438Z,12.70
2017-08-06T04:19:28.717Z,12.70
2017-08-06T04:21:55.006Z,12.70
2017-08-06T04:24:21.308Z,12.70
2017-08-06T04:26:47.573Z,12.70
2017-08-06T04:29:14.585Z,12.80
2017-08-06T04:31:40.993Z,12.70
2017-08-06T04:34:07.266Z,12.80
2017-08-06T04:36:33.538Z,12.80
2017-08-06T04:39:00.103Z,12.80
2017-08-06T04:41:26.375Z,12.90
2017-08-06T04:43:53.383Z,13.00
2017-08-06T04:46:19.770Z,13.00
2017-08-06T04:48:46.050Z,13.10
2017-08-06T04:51:12.319Z,13.10
2017-08-06T04:53:39.455Z,13.20
2017-08-06T04:56:06.480Z,13.20
2017-08-06T04:58:32.758Z,13.10
2017-08-06T05:00:59.190Z,13.20
2017-08-06T05:03:25.469Z,13.20
2017-08-06T05:05:51.737Z,13.00
2017-08-06T05:08:18.874Z,12.90
2017-08-06T05:10:45.901Z,12.90
2017-08-06T05:13:12.181Z,12.80
2017-08-06T05:15:38.844Z,12.80
2017-08-06T05:18:05.114Z,12.80
2017-08-06T05:20:32.131Z,12.90
2017-08-06T05:22:58.431Z,12.90
2017-08-06T05:25:24.714Z,12.90
2017-08-06T05:27:51.743Z,12.90
2017-08-06T05:30:18.814Z,12.90
2017-08-06T05:32:45.849Z,12.90
2017-08-06T05:35:12.176Z,12.90
2017-08-06T05:37:38.627Z,13.00
2017-08-06T05:40:05.702Z,13.00
2017-08-06T05:42:31.999Z,13.00
2017-08-06T05:44:59.035Z,13.30
2017-08-06T05:47:25.313Z,13.20
2017-08-06T05:49:51.605Z,13.40
2017-08-06T05:52:18.629Z,13.50
2017-08-06T05:54:44.967Z,13.40
2017-08-06T05:57:11.251Z,13.50
2017-08-06T05:59:37.519Z,13.50
2017-08-06T06:02:04.057Z,13.70
2017-08-06T06:04:31.493Z,13.70
2017-08-06T06:06:57.763Z,13.70
2017-08-06T06:09:24.771Z,13.50
2017-08-06T06:11:51.087Z,13.50
2017-08-06T06:14:17.367Z,13.60
2017-08-06T06:16:44.411Z,13.80
2017-08-06T06:19:11.567Z,13.90
2017-08-06T06:21:38.607Z,14.00
2017-08-06T06:24:05.619Z,14.00
2017-08-06T06:26:31.947Z,14.00
2017-08-06T06:28:58.238Z,14.10
2017-08-06T06:31:24.507Z,14.10
2017-08-06T06:33:50.823Z,14.10
2017-08-06T06:36:17.095Z,14.30
2017-08-06T06:38:43.369Z,14.30
2017-08-06T06:41:09.930Z,14.30
2017-08-06T06:43:36.196Z,14.40
2017-08-06T06:46:03.215Z,14.60
2017-08-06T06:48:29.490Z,14.60
2017-08-06T06:50:55.783Z,14.70
2017-08-06T06:53:22.051Z,14.80
2017-08-06T06:55:48.526Z,14.80
2017-08-06T06:58:14.813Z,14.80
2017-08-06T07:00:41.084Z,14.90
2017-08-06T07:03:07.376Z,15.00
2017-08-06T07:05:36.384Z,15.30
2017-08-06T07:08:02.936Z,15.30
2017-08-06T07:10:29.571Z,15.40
2017-08-06T07:12:56.032Z,15.40
2017-08-06T07:15:22.572Z,15.50
2017-08-06T07:17:49.970Z,15.50
2017-08-06T07:20:16.275Z,15.70
2017-08-06T07:22:42.578Z,15.80
2017-08-06T07:25:08.879Z,15.90
2017-08-06T07:27:35.150Z,15.80
2017-08-06T07:30:01.427Z,16.00
2017-08-06T07:32:27.984Z,16.10
2017-08-06T07:34:54.259Z,16.10
2017-08-06T07:37:20.524Z,16.10
2017-08-06T07:39:46.843Z,16.20
2017-08-06T07:42:13.129Z,16.30
2017-08-06T07:44:39.447Z,16.40
2017-08-06T07:47:06.658Z,16.50
2017-08-06T07:49:34.041Z,16.40
2017-08-06T07:52:01.247Z,16.30
2017-08-06T07:54:28.319Z,16.40
2017-08-06T07:56:54.619Z,16.40
2017-08-06T07:59:20.930Z,16.50
2017-08-06T08:01:47.383Z,16.60
2017-08-06T08:04:14.407Z,16.80
2017-08-06T08:06:40.686Z,16.80
2017-08-06T08:09:07.608Z,16.70
2017-08-06T08:11:33.911Z,16.80
2017-08-06T08:14:00.193Z,16.90
2017-08-06T08:16:26.509Z,16.80
2017-08-06T08:18:52.787Z,16.90
2017-08-06T08:21:19.980Z,16.90
2017-08-06T08:23:47.235Z,17.30
2017-08-06T08:26:13.569Z,17.30
2017-08-06T08:28:39.883Z,17.30
2017-08-06T08:31:07.295Z,17.30
2017-08-06T08:33:33.574Z,17.30
2017-08-06T08:35:59.880Z,17.30
2017-08-06T08:38:26.186Z,17.50
2017-08-06T08:40:52.463Z,17.50
2017-08-06T08:43:19.492Z,17.80
2017-08-06T08:45:46.733Z,17.70
2017-08-06T08:48:13.036Z,17.60
2017-08-06T08:50:39.327Z,17.40
2017-08-06T08:53:06.003Z,17.40
2017-08-06T08:55:32.319Z,17.60
2017-08-06T08:57:58.614Z,17.90
2017-08-06T09:00:25.766Z,17.90
2017-08-06T09:02:52.784Z,17.70
2017-08-06T09:05:19.072Z,17.70
2017-08-06T09:07:45.397Z,17.60
2017-08-06T09:10:11.684Z,17.60
2017-08-06T09:12:38.712Z,17.40
2017-08-06T09:15:05.065Z,17.40
2017-08-06T09:17:32.140Z,16.70
2017-08-06T09:19:58.444Z,16.70
2017-08-06T09:22:24.915Z,16.20
2017-08-06T09:24:51.232Z,15.80
2017-08-06T09:27:17.512Z,15.60
2017-08-06T09:29:44.855Z,15.50
2017-08-06T09:32:11.143Z,15.50
2017-08-06T09:34:37.428Z,15.40
2017-08-06T09:37:03.912Z,15.60
2017-08-06T09:39:30.328Z,15.70
2017-08-06T09:41:57.348Z,15.90
2017-08-06T09:44:24.156Z,15.90
2017-08-06T09:46:50.476Z,16.10
2017-08-06T09:49:16.791Z,16.20
2017-08-06T09:51:43.374Z,16.30
2017-08-06T09:54:09.712Z,16.50
2017-08-06T09:56:36.091Z,16.50
2017-08-06T09:59:02.816Z,16.60
2017-08-06T10:01:29.265Z,16.50
2017-08-06T10:03:55.571Z,16.80
2017-08-06T10:06:22.611Z,17.40
2017-08-06T10:08:49.659Z,17.70
2017-08-06T10:11:18.607Z,17.70
2017-08-06T10:13:46.263Z,17.90
2017-08-06T10:16:12.754Z,18.20
2017-08-06T10:18:39.781Z,18.00
2017-08-06T10:21:07.316Z,18.00
2017-08-06T10:23:33.595Z,18.00
2017-08-06T10:26:00.639Z,17.50
2017-08-06T10:28:27.788Z,17.20
2017-08-06T10:30:54.808Z,16.50
2017-08-06T10:33:30.284Z,16.40
2017-08-06T10:35:59.083Z,15.20
2017-08-06T10:38:27.356Z,15.10
2017-08-06T10:40:53.701Z,15.00
2017-08-06T10:43:20.168Z,14.90
2017-08-06T10:45:46.660Z,14.90
2017-08-06T10:48:12.975Z,15.00
2017-08-06T10:50:41.119Z,15.40
2017-08-06T10:53:07.431Z,15.40
2017-08-06T10:55:33.705Z,15.80
2017-08-06T10:58:00.031Z,16.10
2017-08-06T11:00:30.625Z,16.40
2017-08-06T11:02:56.935Z,16.40
2017-08-06T11:05:23.206Z,16.90
2017-08-06T11:07:49.502Z,17.40
2017-08-06T11:10:16.562Z,17.30
2017-08-06T11:12:42.827Z,17.10
2017-08-06T11:15:09.916Z,17.90
2017-08-06T11:17:36.201Z,17.80
2017-08-06T11:20:03.988Z,17.90
2017-08-06T11:22:30.431Z,17.90
2017-08-06T11:24:56.707Z,17.50
2017-08-06T11:27:23.010Z,17.50
2017-08-06T11:29:51.011Z,17.70
2017-08-06T11:32:17.550Z,17.80
2017-08-06T11:34:44.683Z,17.90
2017-08-06T11:37:14.136Z,17.90
2017-08-06T11:39:40.522Z,18.00
2017-08-06T11:42:06.877Z,18.10
2017-08-06T11:44:34.009Z,18.40
2017-08-06T11:47:00.296Z,18.40
2017-08-06T11:49:26.773Z,18.60
2017-08-06T11:51:53.116Z,18.60
2017-08-06T11:54:19.433Z,18.50
2017-08-06T11:56:45.779Z,18.50
2017-08-06T11:59:15.104Z,18.60
2017-08-06T12:01:41.446Z,18.70
2017-08-06T12:04:07.791Z,18.80
2017-08-06T12:06:34.451Z,19.10
2017-08-06T12:09:00.774Z,19.20
2017-08-06T12:11:27.174Z,19.40
2017-08-06T12:13:53.500Z,19.70
2017-08-06T12:16:19.814Z,19.60
2017-08-06T12:18:46.396Z,19.40
2017-08-06T12:21:12.768Z,19.60
2017-08-06T12:23:39.787Z,19.50
2017-08-06T12:26:06.205Z,19.50
2017-08-06T12:28:32.493Z,19.70
2017-08-06T12:30:58.878Z,20.10
2017-08-06T12:33:32.430Z,20.50
2017-08-06T12:35:58.707Z,20.80
2017-08-06T12:38:25.000Z,21.20
2017-08-06T12:40:51.312Z,20.70
2017-08-06T12:43:17.608Z,20.10
2017-08-06T12:45:43.899Z,19.90
2017-08-06T12:48:10.219Z,20.20
2017-08-06T12:50:36.501Z,20.20
2017-08-06T12:53:02.802Z,20.70
2017-08-06T12:55:29.212Z,21.40
2017-08-06T12:57:55.590Z,21.80
2017-08-06T13:00:21.914Z,22.30
2017-08-06T13:02:48.236Z,22.80
2017-08-06T13:05:14.545Z,22.80
2017-08-06T13:07:40.822Z,22.80
2017-08-06T13:10:07.293Z,22.90
2017-08-06T13:12:33.567Z,23.50
2017-08-06T13:15:00.716Z,23.50
2017-08-06T13:17:27.020Z,23.60
2017-08-06T13:19:53.308Z,23.20
2017-08-06T13:22:20.322Z,21.90
2017-08-06T13:24:46.641Z,21.80
2017-08-06T13:27:12.985Z,21.10
2017-08-06T13:29:39.259Z,20.40
2017-08-06T13:32:05.588Z,19.80
2017-08-06T13:34:31.903Z,19.50
2017-08-06T13:36:58.916Z,20.90
2017-08-06T13:39:25.216Z,20.90
2017-08-06T13:41:51.494Z,21.50
2017-08-06T13:44:18.636Z,22.30
2017-08-06T13:46:44.923Z,22.30
2017-08-06T13:49:11.500Z,22.70
2017-08-06T13:51:37.810Z,22.70
2017-08-06T13:54:04.108Z,22.90
2017-08-06T13:56:30.387Z,23.30
2017-08-06T13:58:57.641Z,23.50
2017-08-06T14:01:23.920Z,24.00
2017-08-06T14:03:50.210Z,24.60
2017-08-06T14:06:17.270Z,24.50
2017-08-06T14:08:43.562Z,24.50
2017-08-06T14:11:09.839Z,24.80
2017-08-06T14:13:36.166Z,24.30
2017-08-06T14:16:02.457Z,24.20
2017-08-06T14:18:28.747Z,23.70
2017-08-06T14:20:55.229Z,24.30
2017-08-06T14:23:21.512Z,24.70
2017-08-06T14:25:47.805Z,24.20
2017-08-06T14:28:15.002Z,22.70
2017-08-06T14:30:41.306Z,22.60
2017-08-06T14:33:07.595Z,23.10
2017-08-06T14:35:33.915Z,23.30
2017-08-06T14:38:00.210Z,24.20
2017-08-06T14:40:26.501Z,24.10
2017-08-06T14:42:53.628Z,23.90
2017-08-06T14:45:19.923Z,23.90
2017-08-06T14:47:46.207Z,23.30
2017-08-06T14:50:13.441Z,21.90
2017-08-06T14:52:39.711Z,21.80
2017-08-06T14:55:05.991Z,21.40
2017-08-06T14:57:32.332Z,21.30
2017-08-06T14:59:58.612Z,21.10
2017-08-06T15:02:24.910Z,20.60
2017-08-06T15:04:51.980Z,20.60
2017-08-06T15:07:18.250Z,20.50
2017-08-06T15:09:44.518Z,20.80
2017-08-06T15:12:11.567Z,21.10
2017-08-06T15:14:38.583Z,21.10
2017-08-06T15:17:04.880Z,21.10
2017-08-06T15:19:31.190Z,21.00
2017-08-06T15:21:57.454Z,20.90
2017-08-06T15:24:23.748Z,20.90
2017-08-06T15:26:50.047Z,20.70
2017-08-06T15:29:16.310Z,20.70
2017-08-06T15:31:43.151Z,20.60
2017-08-06T15:34:09.454Z,20.50
2017-08-06T15:36:36.471Z,20.40
2017-08-06T15:39:02.789Z,20.30
2017-08-06T15:41:29.167Z,20.30
2017-08-06T15:43:55.460Z,20.20
2017-08-06T15:46:21.744Z,20.10
2017-08-06T15:48:48.132Z,20.10
2017-08-06T15:51:14.431Z,20.10
2017-08-06T15:53:40.720Z,20.20
2017-08-06T15:56:07.921Z,20.10
2017-08-06T15:58:34.200Z,20.10
2017-08-06T16:01:01.240Z,20.10
2017-08-06T16:03:27.551Z,20.00
2017-08-06T16:05:53.835Z,20.10
2017-08-06T16:08:20.131Z,20.10
2017-08-06T16:10:49.640Z,19.80
2017-08-06T16:13:15.924Z,19.80
2017-08-06T16:15:42.199Z,19.80
2017-08-06T16:18:09.260Z,19.80
2017-08-06T16:20:35.550Z,19.80
2017-08-06T16:23:01.860Z,19.70
2017-08-06T16:25:28.417Z,19.70
2017-08-06T16:27:54.831Z,19.60
2017-08-06T16:30:21.186Z,19.60
2017-08-06T16:32:47.474Z,19.60
2017-08-06T16:35:13.788Z,19.50
2017-08-06T16:37:40.069Z,19.50
2017-08-06T16:40:06.363Z,19.40
2017-08-06T16:42:32.668Z,19.30
2017-08-06T16:44:58.947Z,19.30
2017-08-06T16:47:25.303Z,19.30
2017-08-06T16:49:52.332Z,19.20
2017-08-06T16:52:18.614Z,19.20
2017-08-06T16:54:44.904Z,19.20
2017-08-06T16:57:11.183Z,19.30
2017-08-06T16:59:37.836Z,19.20
2017-08-06T17:02:04.110Z,19.20
2017-08-06T17:04:31.129Z,19.10
2017-08-06T17:06:57.443Z,19.10
2017-08-06T17:09:23.721Z,19.20
2017-08-06T17:11:50.745Z,18.90
2017-08-06T17:14:17.036Z,18.90
2017-08-06T17:16:43.313Z,18.90
2017-08-06T17:19:10.340Z,18.70
2017-08-06T17:21:37.129Z,18.70
2017-08-06T17:24:03.749Z,18.70
2017-08-06T17:26:30.043Z,18.60
2017-08-06T17:28:56.866Z,18.60
2017-08-06T17:31:23.396Z,18.60
2017-08-06T17:33:50.131Z,18.70
2017-08-06T17:36:16.618Z,18.60
2017-08-06T17:38:43.978Z,18.50
2017-08-06T17:41:10.538Z,18.40
2017-08-06T17:43:37.134Z,18.40
2017-08-06T17:46:03.419Z,18.40
2017-08-06T17:48:29.714Z,18.30
2017-08-06T17:50:56.858Z,18.20
2017-08-06T17:53:23.867Z,18.10
2017-08-06T17:55:50.143Z,18.10
2017-08-06T17:58:17.187Z,18.00
2017-08-06T18:00:44.212Z,17.80
2017-08-06T18:03:10.493Z,17.80
2017-08-06T18:05:37.051Z,17.80
2017-08-06T18:08:03.341Z,17.80
2017-08-06T18:10:29.629Z,17.90
2017-08-06T18:12:56.249Z,17.70
2017-08-06T18:15:22.525Z,17.70
2017-08-06T18:17:48.815Z,17.70
2017-08-06T18:20:15.111Z,17.70
2017-08-06T18:22:41.375Z,17.60
2017-08-06T18:25:07.681Z,17.50
2017-08-06T18:27:33.987Z,17.60
2017-08-06T18:30:00.277Z,17.60
2017-08-06T18:32:26.583Z,17.50
2017-08-06T18:34:52.881Z,17.40
2017-08-06T18:37:26.191Z,17.30
2017-08-06T18:39:52.507Z,17.40
2017-08-06T18:42:18.790Z,17.30
2017-08-06T18:44:45.070Z,17.30
2017-08-06T18:47:11.643Z,17.20
2017-08-06T18:49:37.939Z,17.30
2017-08-06T18:54:37.291Z,17.10
2017-08-06T18:57:03.594Z,17.00
2017-08-06T18:59:29.885Z,16.90
2017-08-06T19:01:56.939Z,16.70
2017-08-06T19:04:23.959Z,16.60
2017-08-06T19:06:50.263Z,16.60
2017-08-06T19:09:16.578Z,16.50
2017-08-06T19:11:42.868Z,16.50
2017-08-06T19:14:09.901Z,16.50
2017-08-06T19:16:36.223Z,16.40
2017-08-06T19:19:02.522Z,16.40
2017-08-06T19:21:28.822Z,16.20
2017-08-06T19:23:55.305Z,16.10
2017-08-06T19:26:21.582Z,16.00
2017-08-06T19:28:47.878Z,15.90
2017-08-06T19:31:14.187Z,15.90
2017-08-06T19:33:40.461Z,15.80
2017-08-06T19:36:06.737Z,15.80
2017-08-06T19:38:33.043Z,15.70
2017-08-06T19:41:07.184Z,15.70
2017-08-06T19:43:33.648Z,15.70
2017-08-06T19:45:59.943Z,15.70
2017-08-06T19:48:26.230Z,15.60
2017-08-06T19:50:52.523Z,15.60
2017-08-06T19:53:18.839Z,15.60
2017-08-06T19:55:45.904Z,15.50
2017-08-06T19:58:12.196Z,15.40
2017-08-06T20:00:38.497Z,15.30
2017-08-06T20:03:04.796Z,15.30
2017-08-06T20:05:31.073Z,15.20
2017-08-06T20:07:57.374Z,15.10
2017-08-06T20:10:24.392Z,15.10
2017-08-06T20:12:50.672Z,15.20
2017-08-06T20:15:17.240Z,15.10
2017-08-06T20:17:43.540Z,15.10
2017-08-06T20:20:09.820Z,15.10
2017-08-06T20:22:36.439Z,15.00
2017-08-06T20:25:02.738Z,15.00
2017-08-06T20:27:29.011Z,15.00
2017-08-06T20:29:55.312Z,15.00
2017-08-06T20:32:21.595Z,15.00
2017-08-06T20:34:47.878Z,14.90
2017-08-06T20:37:14.188Z,14.80
2017-08-06T20:39:40.465Z,14.80
2017-08-06T20:42:06.763Z,14.70
2017-08-06T20:44:33.173Z,14.70
2017-08-06T20:46:59.451Z,14.60
2017-08-06T20:49:25.755Z,14.60
2017-08-06T20:51:52.069Z,14.60
2017-08-06T20:54:18.348Z,14.50
2017-08-06T20:56:44.818Z,14.50
2017-08-06T20:59:11.131Z,14.40
2017-08-06T21:01:38.151Z,14.20
2017-08-06T21:04:04.439Z,14.20
2017-08-06T21:06:30.741Z,14.20
2017-08-06T21:08:58.991Z,14.10
2017-08-06T21:11:25.283Z,14.10
2017-08-06T21:13:51.750Z,14.00
2017-08-06T21:16:18.032Z,13.90
2017-08-06T21:18:44.316Z,13.90
2017-08-06T21:21:10.617Z,14.00
2017-08-06T21:23:36.930Z,14.10
2017-08-06T21:26:03.211Z,14.10
2017-08-06T21:28:30.249Z,14.00
2017-08-06T21:30:56.630Z,14.00
2017-08-06T21:33:22.948Z,13.90
2017-08-06T21:35:49.277Z,13.90
2017-08-06T21:38:15.564Z,13.80
2017-08-06T21:40:41.868Z,13.80
2017-08-06T21:43:08.153Z,13.80
2017-08-06T21:45:35.167Z,13.60
2017-08-06T21:48:01.471Z,13.60
2017-08-06T21:50:27.742Z,13.60
2017-08-06T21:52:54.022Z,13.60
2017-08-06T21:55:20.484Z,13.60
2017-08-06T21:57:46.763Z,13.60
2017-08-06T22:00:13.045Z,13.60
2017-08-06T22:02:39.349Z,13.50
2017-08-06T22:05:05.640Z,13.40
2017-08-06T22:07:32.662Z,13.30
2017-08-06T22:09:58.977Z,13.30
2017-08-06T22:12:25.253Z,13.30
2017-08-06T22:14:51.523Z,13.30
2017-08-06T22:17:17.827Z,13.30
2017-08-06T22:19:44.122Z,13.30
2017-08-06T22:22:11.145Z,13.40
2017-08-06T22:24:37.543Z,13.40
2017-08-06T22:27:03.828Z,13.30
2017-08-06T22:29:30.861Z,13.20
2017-08-06T22:31:57.321Z,13.20
2017-08-06T22:34:24.342Z,13.20
2017-08-06T22:36:50.621Z,13.20
2017-08-06T22:39:17.100Z,13.10
2017-08-06T22:41:44.147Z,13.10
2017-08-06T22:44:10.431Z,13.00
2017-08-06T22:46:36.919Z,13.10
2017-08-06T22:49:03.199Z,13.00
2017-08-06T22:51:29.494Z,13.20
2017-08-06T22:53:55.842Z,13.10
2017-08-06T22:56:22.119Z,13.10
2017-08-06T22:58:48.466Z,13.00
2017-08-06T23:01:14.794Z,13.00
2017-08-06T23:03:41.080Z,13.00
2017-08-06T23:06:07.410Z,12.90
2017-08-06T23:08:33.723Z,12.90
2017-08-06T23:11:00.015Z,13.00
2017-08-06T23:13:27.061Z,13.00
2017-08-06T23:15:53.414Z,12.90
2017-08-06T23:18:20.453Z,12.90
2017-08-06T23:20:47.495Z,12.90
2017-08-06T23:23:13.830Z,12.90
2017-08-06T23:25:40.123Z,12.90
2017-08-06T23:28:06.683Z,13.00
2017-08-06T23:30:33.021Z,12.90
2017-08-06T23:32:59.335Z,12.90
2017-08-06T23:35:25.615Z,12.80
2017-08-06T23:37:51.919Z,12.80
2017-08-06T23:40:18.960Z,12.70
2017-08-06T23:42:45.973Z,12.70
2017-08-06T23:45:12.435Z,12.60
2017-08-06T23:47:38.722Z,12.60
2017-08-06T23:50:05.012Z,12.60
2017-08-06T23:52:32.168Z,12.70
2017-08-06T23:54:58.477Z,12.70
2017-08-06T23:57:24.770Z,12.70
2017-08-06T23:59:51.203Z,12.90
